Time;durP1;ratioP1;P1;durP2;ratioP2;P2;SDS_P1;SDS_P2;PMS_P1;PMS_P2;Temp;Humidity;BMP_temperature;BMP_pressure;BME280_temperature;BME280_humidity;BME280_pressure;Samples;Min_cycle;Max_cycle;Signal;HPM_P1;HPM_P2
2021/09/02 00:02:01;;;;;;;34.22;17.05;;;;;;;12.39;100.00;98778.09;5007052;28;20042;-79
2021/09/02 00:04:28;;;;;;;32.33;16.15;;;;;;;12.45;100.00;98790.47;5024403;28;20046;-80
2021/09/02 00:06:57;;;;;;;30.25;16.15;;;;;;;12.41;100.00;98786.72;5006293;28;20050;-79
2021/09/02 00:09:25;;;;;;;31.35;15.80;;;;;;;12.34;100.00;98775.47;5008263;28;20042;-80
2021/09/02 00:11:51;;;;;;;38.95;17.80;;;;;;;12.33;100.00;98781.19;5007238;28;20046;-79
2021/09/02 00:14:18;;;;;;;32.78;17.60;;;;;;;12.27;100.00;98783.19;5005564;28;20053;-80
2021/09/02 00:16:48;;;;;;;34.20;16.83;;;;;;;12.32;100.00;98780.38;5006934;28;20026;-80
2021/09/02 00:19:15;;;;;;;37.85;17.60;;;;;;;12.32;100.00;98785.81;5008995;28;20284;-79
2021/09/02 00:21:42;;;;;;;32.28;17.10;;;;;;;12.31;100.00;98788.84;5006461;28;20340;-80
2021/09/02 00:24:08;;;;;;;34.25;18.00;;;;;;;12.24;100.00;98781.06;5008918;28;20077;-80
2021/09/02 00:26:42;;;;;;;41.60;18.92;;;;;;;12.33;100.00;98786.63;5010193;28;20053;-79
2021/09/02 00:29:09;;;;;;;39.55;19.63;;;;;;;12.23;100.00;98774.00;5026098;28;20074;-80
2021/09/02 00:31:35;;;;;;;41.00;19.40;;;;;;;12.12;100.00;98780.75;5006791;28;20117;-79
2021/09/02 00:34:02;;;;;;;41.63;18.67;;;;;;;12.19;100.00;98781.16;5013021;28;20050;-80
2021/09/02 00:36:28;;;;;;;35.55;18.45;;;;;;;12.22;100.00;98783.28;5014217;28;20104;-79
2021/09/02 00:38:55;;;;;;;35.67;17.60;;;;;;;12.21;100.00;98783.56;5012180;28;20056;-78
2021/09/02 00:41:22;;;;;;;36.42;17.65;;;;;;;12.18;100.00;98784.19;5003156;28;20061;-83
2021/09/02 00:43:49;;;;;;;33.15;17.67;;;;;;;12.11;100.00;98779.13;4998003;28;20054;-83
2021/09/02 00:46:17;;;;;;;27.52;16.50;;;;;;;12.17;100.00;98791.50;4997531;28;20091;-83
2021/09/02 00:48:46;;;;;;;31.30;16.05;;;;;;;12.04;100.00;98791.44;5011911;28;20050;-83
2021/09/02 00:51:15;;;;;;;28.63;16.08;;;;;;;12.00;100.00;98801.31;4997608;28;20241;-83
2021/09/02 00:53:45;;;;;;;35.22;16.75;;;;;;;11.99;100.00;98802.38;5011848;28;20473;-80
2021/09/02 00:56:15;;;;;;;28.55;16.45;;;;;;;11.91;100.00;98800.34;4996103;28;20418;-82
2021/09/02 00:58:43;;;;;;;35.47;17.20;;;;;;;11.87;100.00;98792.00;4996157;28;20081;-82
2021/09/02 01:01:11;;;;;;;27.85;16.40;;;;;;;11.86;100.00;98795.81;4994156;28;20105;-82
2021/09/02 01:03:38;;;;;;;32.58;16.65;;;;;;;11.82;100.00;98787.44;4996368;28;20057;-81
2021/09/02 01:06:05;;;;;;;32.88;17.85;;;;;;;11.74;100.00;98790.03;4997307;28;20046;-84
2021/09/02 01:08:34;;;;;;;29.20;16.10;;;;;;;11.72;100.00;98795.72;4996084;28;20434;-84
2021/09/02 01:11:01;;;;;;;36.50;17.25;;;;;;;11.65;100.00;98802.59;4995857;28;20054;-83
2021/09/02 01:13:29;;;;;;;27.75;16.02;;;;;;;11.64;100.00;98798.28;4998078;28;20548;-84
2021/09/02 01:15:56;;;;;;;28.40;16.48;;;;;;;11.64;100.00;98799.06;4995207;28;20520;-83
2021/09/02 01:18:22;;;;;;;30.02;15.88;;;;;;;11.58;100.00;98792.13;5010378;28;20108;-83
2021/09/02 01:20:49;;;;;;;30.10;16.23;;;;;;;11.55;100.00;98800.03;4995624;28;20050;-81
2021/09/02 01:23:19;;;;;;;29.48;16.30;;;;;;;11.50;100.00;98791.97;5010407;28;20046;-82
2021/09/02 01:25:46;;;;;;;29.00;16.33;;;;;;;11.58;100.00;98799.44;4996039;28;20505;-81
2021/09/02 01:28:13;;;;;;;31.15;16.75;;;;;;;11.53;100.00;98800.34;4997223;28;20046;-80
2021/09/02 01:30:41;;;;;;;27.08;14.50;;;;;;;11.47;100.00;98801.50;4997824;28;20132;-82
2021/09/02 01:33:10;;;;;;;21.63;13.82;;;;;;;11.56;100.00;98805.16;5000217;28;20125;-82
2021/09/02 01:35:37;;;;;;;18.85;13.23;;;;;;;11.44;100.00;98796.66;5000731;28;20406;-79
2021/09/02 01:38:06;;;;;;;25.15;13.85;;;;;;;11.52;100.00;98797.91;5000782;28;20046;-81
2021/09/02 01:40:36;;;;;;;21.60;13.55;;;;;;;11.49;100.00;98802.00;4996396;28;20054;-81
2021/09/02 01:43:04;;;;;;;19.00;12.02;;;;;;;11.47;100.00;98797.97;5010800;28;20465;-82
2021/09/02 01:45:31;;;;;;;21.50;13.02;;;;;;;11.38;100.00;98794.31;4995704;28;20046;-82
2021/09/02 01:47:59;;;;;;;28.92;15.43;;;;;;;11.28;100.00;98800.66;4995727;28;20097;-83
2021/09/02 01:50:32;;;;;;;26.25;14.30;;;;;;;11.30;100.00;98808.50;5011045;28;20046;-83
2021/09/02 01:53:00;;;;;;;23.20;13.80;;;;;;;11.26;100.00;98806.38;4995829;28;20054;-83
2021/09/02 01:55:27;;;;;;;19.92;14.00;;;;;;;11.22;100.00;98799.13;5010846;28;20260;-82
2021/09/02 01:57:54;;;;;;;133.95;17.90;;;;;;;11.11;100.00;98795.72;4996071;28;20050;-81
2021/09/02 02:00:21;;;;;;;32.92;17.77;;;;;;;11.09;100.00;98784.38;4996190;28;20042;-83
2021/09/02 02:02:48;;;;;;;27.90;16.20;;;;;;;11.11;100.00;98790.31;4996426;28;20129;-81
2021/09/02 02:05:16;;;;;;;37.10;19.70;;;;;;;11.00;100.00;98809.66;4995166;28;20042;-81
2021/09/02 02:07:43;;;;;;;33.30;18.33;;;;;;;11.07;100.00;98802.81;4993702;28;20050;-81
2021/09/02 02:10:26;;;;;;;36.83;20.30;;;;;;;10.93;100.00;98796.47;4995446;28;20293;-82
2021/09/02 02:12:56;;;;;;;35.70;18.17;;;;;;;10.98;100.00;98809.16;4994174;28;20134;-81
2021/09/02 02:15:23;;;;;;;34.42;18.38;;;;;;;10.95;100.00;98804.31;4995459;28;20042;-83
2021/09/02 02:17:50;;;;;;;33.72;18.13;;;;;;;10.85;100.00;98802.53;4994567;28;20498;-82
2021/09/02 02:20:18;;;;;;;37.78;17.75;;;;;;;10.84;100.00;98808.25;4994254;28;20273;-83
2021/09/02 02:22:45;;;;;;;34.85;16.60;;;;;;;10.79;100.00;98800.19;4997232;28;20096;-83
2021/09/02 02:25:13;;;;;;;31.33;16.80;;;;;;;10.72;100.00;98800.50;4999881;28;20046;-83
2021/09/02 02:27:41;;;;;;;38.38;17.85;;;;;;;10.75;100.00;98802.63;4998532;28;20051;-83
2021/09/02 02:30:11;;;;;;;33.80;18.23;;;;;;;10.73;100.00;98798.59;5002410;28;20038;-80
2021/09/02 02:32:38;;;;;;;29.38;16.85;;;;;;;10.70;100.00;98796.47;5014596;28;20446;-82
2021/09/02 02:35:05;;;;;;;36.80;18.05;;;;;;;10.93;100.00;98788.34;4998605;28;20050;-81
2021/09/02 02:37:33;;;;;;;35.20;19.02;;;;;;;10.84;100.00;98800.91;4998106;28;20038;-82
2021/09/02 02:39:59;;;;;;;41.22;19.42;;;;;;;10.82;100.00;98797.69;4998408;28;20047;-82
2021/09/02 02:42:26;;;;;;;30.77;17.77;;;;;;;10.80;100.00;98793.66;4998590;28;20046;-82
2021/09/02 02:44:52;;;;;;;33.22;17.05;;;;;;;10.74;100.00;98790.19;4998442;28;20495;-81
2021/09/02 02:47:19;;;;;;;37.75;18.17;;;;;;;10.74;100.00;98792.06;4997089;28;20046;-81
2021/09/02 02:49:46;;;;;;;29.63;16.17;;;;;;;10.77;100.00;98792.31;4997749;28;20057;-82
2021/09/02 02:52:12;;;;;;;30.33;16.38;;;;;;;10.76;100.00;98781.78;4997528;28;20046;-82
2021/09/02 02:54:39;;;;;;;32.38;16.45;;;;;;;10.73;100.00;98785.88;5012551;28;20050;-82
2021/09/02 02:57:06;;;;;;;28.42;15.75;;;;;;;10.80;100.00;98788.22;5012589;28;20043;-82
2021/09/02 02:59:32;;;;;;;28.70;14.88;;;;;;;10.77;100.00;98780.66;4997465;28;20050;-80
2021/09/02 03:01:59;;;;;;;26.95;15.00;;;;;;;10.81;100.00;98787.13;4997484;28;20050;-83
2021/09/02 03:04:26;;;;;;;26.13;14.77;;;;;;;10.84;100.00;98784.66;4998158;28;20092;-79
2021/09/02 03:06:52;;;;;;;30.48;16.17;;;;;;;10.87;100.00;98777.84;4998363;28;20043;-82
2021/09/02 03:09:19;;;;;;;31.35;16.17;;;;;;;10.88;100.00;98771.34;4998458;28;20042;-83
2021/09/02 03:11:45;;;;;;;28.95;15.45;;;;;;;10.94;100.00;98784.53;4997675;28;20043;-82
2021/09/02 03:14:12;;;;;;;34.25;17.27;;;;;;;10.92;100.00;98777.78;4995961;28;20050;-80
2021/09/02 03:16:38;;;;;;;37.70;19.65;;;;;;;10.89;100.00;98786.50;4997293;28;20066;-80
2021/09/02 03:19:05;;;;;;;32.42;17.00;;;;;;;11.30;100.00;98779.50;4996884;28;20046;-81
2021/09/02 03:21:32;;;;;;;29.75;16.70;;;;;;;11.36;100.00;98772.06;4996458;28;20052;-82
2021/09/02 03:23:58;;;;;;;34.38;15.57;;;;;;;11.32;100.00;98780.00;4997502;28;20054;-83
2021/09/02 03:26:25;;;;;;;33.22;18.05;;;;;;;11.28;100.00;98773.53;4996561;28;20049;-80
2021/09/02 03:28:52;;;;;;;35.33;17.83;;;;;;;11.24;100.00;98773.34;4997376;28;20042;-82
2021/09/02 03:31:18;;;;;;;35.58;18.05;;;;;;;11.14;100.00;98781.59;4996184;28;20130;-82
2021/09/02 03:33:45;;;;;;;87.00;26.13;;;;;;;11.02;100.00;98785.81;5010515;28;20085;-80
2021/09/02 03:36:11;;;;;;;52.47;24.25;;;;;;;11.16;100.00;98784.81;4997018;28;20038;-80
2021/09/02 03:38:38;;;;;;;217.95;28.58;;;;;;;11.12;100.00;98780.28;4998550;28;20053;-82
2021/09/02 03:41:05;;;;;;;99.85;30.45;;;;;;;11.19;100.00;98786.94;4997556;28;20088;-80
2021/09/02 03:43:32;;;;;;;104.35;28.30;;;;;;;11.09;100.00;98772.72;4996610;28;20458;-80
2021/09/02 03:45:58;;;;;;;65.50;25.65;;;;;;;11.04;100.00;98781.72;4997471;28;20046;-82
2021/09/02 03:48:25;;;;;;;46.25;23.55;;;;;;;11.04;100.00;98780.91;4997098;28;20475;-81
2021/09/02 03:50:51;;;;;;;45.75;21.80;;;;;;;10.94;100.00;98775.63;4997846;28;20529;-81
2021/09/02 03:53:18;;;;;;;41.25;20.45;;;;;;;10.98;100.00;98782.88;5013782;28;20560;-83
2021/09/02 03:55:44;;;;;;;39.42;20.60;;;;;;;11.06;100.00;98779.53;4999617;28;20394;-83
2021/09/02 03:58:11;;;;;;;44.78;20.83;;;;;;;10.69;100.00;98779.41;5014710;28;20053;-84
2021/09/02 04:00:37;;;;;;;40.97;19.63;;;;;;;10.55;100.00;98783.91;5014087;28;20073;-82
2021/09/02 04:03:04;;;;;;;45.72;19.15;;;;;;;10.58;100.00;98794.94;5013933;28;20085;-83
2021/09/02 04:05:32;;;;;;;47.30;20.33;;;;;;;10.54;100.00;98787.69;4998809;28;20422;-81
2021/09/02 04:07:59;;;;;;;53.90;22.40;;;;;;;10.56;100.00;98790.91;4994584;28;20065;-81
2021/09/02 04:10:25;;;;;;;52.33;22.88;;;;;;;10.54;100.00;98780.38;4993939;28;20485;-81
2021/09/02 04:12:52;;;;;;;33.22;16.90;;;;;;;10.45;100.00;98781.28;4994202;28;20402;-79
2021/09/02 04:15:19;;;;;;;36.15;17.40;;;;;;;10.48;100.00;98791.53;4994049;28;20050;-82
2021/09/02 04:17:45;;;;;;;35.70;18.00;;;;;;;10.49;100.00;98795.84;4994006;28;20129;-82
2021/09/02 04:20:12;;;;;;;33.83;16.80;;;;;;;10.53;100.00;98791.47;4994917;28;20489;-82
2021/09/02 04:22:39;;;;;;;27.65;16.30;;;;;;;10.60;100.00;98794.69;5001924;28;20046;-82
2021/09/02 04:25:06;;;;;;;39.10;16.85;;;;;;;10.57;100.00;98774.41;5003696;28;20414;-80
2021/09/02 04:27:33;;;;;;;33.22;16.33;;;;;;;10.62;100.00;98777.03;5013421;28;20057;-83
2021/09/02 04:30:06;;;;;;;34.35;17.48;;;;;;;10.70;100.00;98797.28;5014949;28;20073;-81
2021/09/02 04:32:33;;;;;;;30.55;16.73;;;;;;;10.63;100.00;98791.41;5015186;28;20109;-81
2021/09/02 04:35:00;;;;;;;40.53;18.98;;;;;;;10.45;100.00;98781.28;5014804;28;20034;-81
2021/09/02 04:37:28;;;;;;;49.15;20.48;;;;;;;10.49;100.00;98779.63;5011559;28;20042;-83
2021/09/02 04:39:54;;;;;;;46.75;21.73;;;;;;;10.59;100.00;98790.34;4995337;28;20054;-83
2021/09/02 04:42:21;;;;;;;50.90;23.35;;;;;;;10.65;100.00;98783.78;4996605;28;20042;-83
2021/09/02 04:44:49;;;;;;;53.78;24.27;;;;;;;10.79;100.00;98806.38;4996666;28;20050;-81
2021/09/02 04:47:15;;;;;;;45.13;20.77;;;;;;;10.83;100.00;98795.78;4994430;28;20487;-83
2021/09/02 04:49:42;;;;;;;41.65;21.27;;;;;;;10.90;100.00;98799.75;5011201;28;20053;-83
2021/09/02 04:52:08;;;;;;;43.72;21.60;;;;;;;10.89;100.00;98797.34;5002357;28;20057;-83
2021/09/02 04:54:35;;;;;;;40.47;19.58;;;;;;;10.92;100.00;98805.69;5001566;28;20062;-83
2021/09/02 04:57:02;;;;;;;37.38;19.00;;;;;;;10.93;100.00;98799.19;4998418;28;20060;-83
2021/09/02 04:59:29;;;;;;;37.42;18.27;;;;;;;11.02;100.00;98799.38;4996518;28;20089;-82
2021/09/02 05:01:55;;;;;;;38.00;19.05;;;;;;;11.06;100.00;98817.47;4995971;28;20053;-83
2021/09/02 05:04:22;;;;;;;33.65;17.67;;;;;;;11.10;100.00;98815.78;4994731;28;20038;-83
2021/09/02 05:06:49;;;;;;;35.53;18.27;;;;;;;11.07;100.00;98802.81;4994694;28;20046;-82
2021/09/02 05:09:16;;;;;;;34.47;18.25;;;;;;;11.17;100.00;98815.44;4995174;28;20042;-82
2021/09/02 05:11:42;;;;;;;34.63;18.45;;;;;;;11.15;100.00;98813.00;4994577;28;20041;-83
2021/09/02 05:14:09;;;;;;;44.45;18.73;;;;;;;11.32;100.00;98828.81;4995512;28;20046;-84
2021/09/02 05:16:35;;;;;;;41.58;19.70;;;;;;;11.27;100.00;98823.44;4994685;28;20038;-82
2021/09/02 05:19:02;;;;;;;69.47;28.73;;;;;;;11.26;100.00;98819.94;4997953;28;20046;-83
2021/09/02 05:21:29;;;;;;;47.50;22.98;;;;;;;11.67;100.00;98820.19;4985894;28;20073;-83
2021/09/02 05:23:55;;;;;;;42.28;22.45;;;;;;;11.75;100.00;98805.19;4991714;28;20058;-82
2021/09/02 05:26:22;;;;;;;46.78;22.02;;;;;;;11.89;100.00;98811.50;4975565;28;20089;-83
2021/09/02 05:28:49;;;;;;;40.83;19.95;;;;;;;12.02;100.00;98818.09;4975810;28;20051;-84
2021/09/02 05:31:15;;;;;;;38.88;20.10;;;;;;;12.12;100.00;98817.94;4975403;28;20056;-83
2021/09/02 05:33:42;;;;;;;41.45;20.13;;;;;;;12.22;100.00;98815.84;4976548;28;20458;-83
2021/09/02 05:36:10;;;;;;;45.05;21.45;;;;;;;12.23;100.00;98819.38;4976048;28;20158;-81
2021/09/02 05:38:36;;;;;;;41.72;21.40;;;;;;;12.16;100.00;98808.88;4977543;28;20051;-84
2021/09/02 05:41:03;;;;;;;36.45;20.30;;;;;;;12.12;100.00;98813.31;5015723;23;20355;-80
2021/09/02 05:43:29;;;;;;;36.97;20.58;;;;;;;12.07;100.00;98810.69;5029041;28;20052;-80
2021/09/02 05:45:56;;;;;;;39.08;20.45;;;;;;;12.12;100.00;98813.31;5023051;28;20041;-81
2021/09/02 05:48:22;;;;;;;41.10;20.98;;;;;;;12.13;100.00;98811.41;5025565;28;20547;-81
2021/09/02 05:50:52;;;;;;;46.97;20.48;;;;;;;12.23;100.00;98816.69;5028470;28;20505;-79
2021/09/02 05:53:19;;;;;;;45.13;20.92;;;;;;;12.23;100.00;98809.31;5030667;28;20045;-81
2021/09/02 05:58:19;;;;;;;40.03;20.88;;;;;;;12.46;100.00;98815.75;4994701;28;20042;-80
2021/09/02 06:00:47;;;;;;;42.03;22.27;;;;;;;12.66;100.00;98831.69;5010212;28;20042;-80
2021/09/02 06:03:14;;;;;;;60.05;27.27;;;;;;;12.76;100.00;98817.91;4995925;28;20327;-82
2021/09/02 06:05:43;;;;;;;65.90;28.08;;;;;;;12.99;100.00;98826.97;5011216;28;20077;-80
2021/09/02 06:08:10;;;;;;;55.10;28.40;;;;;;;13.22;100.00;98827.91;4996162;28;20509;-80
2021/09/02 06:10:51;;;;;;;60.28;31.45;;;;;;;13.47;100.00;98825.47;4996839;28;20073;-79
2021/09/02 06:13:24;;;;;;;139.20;45.53;;;;;;;13.80;100.00;98820.69;4995716;28;20046;-82
2021/09/02 06:15:51;;;;;;;149.93;51.03;;;;;;;14.15;100.00;98827.22;4995467;28;20064;-82
2021/09/02 06:18:20;;;;;;;260.65;69.25;;;;;;;14.55;100.00;98829.00;4996017;28;20035;-81
2021/09/02 06:20:47;;;;;;;262.08;71.65;;;;;;;15.02;100.00;98835.63;4999912;28;20050;-79
2021/09/02 06:23:14;;;;;;;228.35;64.90;;;;;;;15.19;100.00;98834.91;5017453;28;20060;-81
2021/09/02 06:25:42;;;;;;;229.25;63.40;;;;;;;15.26;100.00;98840.72;5009201;28;20049;-83
2021/09/02 06:28:09;;;;;;;213.38;60.08;;;;;;;15.29;100.00;98829.16;4993934;28;20327;-80
2021/09/02 06:30:37;;;;;;;188.05;58.53;;;;;;;15.34;100.00;98827.09;4995777;28;20061;-79
2021/09/02 06:33:04;;;;;;;182.57;58.58;;;;;;;15.52;100.00;98838.91;4995089;28;20043;-80
2021/09/02 06:35:31;;;;;;;162.60;54.05;;;;;;;15.66;100.00;98841.50;4995227;28;20094;-80
2021/09/02 06:37:58;;;;;;;154.88;54.13;;;;;;;15.74;100.00;98847.00;5011670;28;20066;-80
2021/09/02 06:40:25;;;;;;;144.25;53.67;;;;;;;15.71;100.00;98833.97;4994998;28;20054;-78
2021/09/02 06:42:51;;;;;;;154.57;54.22;;;;;;;15.82;100.00;98837.19;4974353;28;20516;-78
2021/09/02 06:45:18;;;;;;;147.90;52.97;;;;;;;15.97;100.00;98840.28;4989730;28;20058;-78
2021/09/02 06:47:44;;;;;;;148.68;53.88;;;;;;;16.01;100.00;98838.50;4973005;28;20054;-78
2021/09/02 06:50:13;;;;;;;121.90;48.58;;;;;;;16.31;100.00;98844.13;4972969;28;20055;-79
2021/09/02 06:52:41;;;;;;;124.55;49.78;;;;;;;16.27;100.00;98837.69;4988685;28;20057;-81
2021/09/02 06:55:16;;;;;;;116.43;46.75;;;;;;;16.44;100.00;98843.16;4987602;28;20066;-80
2021/09/02 06:57:44;;;;;;;107.82;43.88;;;;;;;16.23;100.00;98824.66;4990510;28;20177;-81
2021/09/02 07:00:27;;;;;;;110.82;45.85;;;;;;;16.64;100.00;98850.72;5006524;28;20058;-82
2021/09/02 07:03:43;;;;;;;130.38;52.70;;;;;;;16.50;100.00;98834.44;4906524;29;20056;-84
2021/09/02 07:06:47;;;;;;;124.38;50.55;;;;;;;16.49;100.00;98832.06;4893998;29;20136;-81
2021/09/02 07:09:14;;;;;;;133.98;52.17;;;;;;;16.64;100.00;98835.13;4916889;29;20068;-82
2021/09/02 07:11:46;;;;;;;140.93;52.20;;;;;;;16.77;100.00;98845.06;4913267;29;20052;-81
2021/09/02 07:14:18;;;;;;;133.98;50.30;;;;;;;16.74;100.00;98842.16;4914208;29;20060;-87
2021/09/02 07:16:45;;;;;;;113.97;46.30;;;;;;;16.95;100.00;98859.50;4914629;29;20036;-75
2021/09/02 07:19:21;;;;;;;123.88;49.20;;;;;;;16.90;100.00;98859.66;4914062;29;20571;-83
2021/09/02 07:21:50;;;;;;;107.80;45.45;;;;;;;16.96;100.00;98863.81;4928900;29;20067;-77
2021/09/02 07:24:17;;;;;;;102.65;43.40;;;;;;;16.92;100.00;98864.81;4918768;29;20135;-77
2021/09/02 07:26:44;;;;;;;100.05;41.78;;;;;;;17.08;100.00;98863.97;4930250;28;20104;-78
2021/09/02 07:29:11;;;;;;;100.32;42.50;;;;;;;16.95;100.00;98866.88;4999235;28;20065;-78
2021/09/02 07:31:39;;;;;;;106.75;42.00;;;;;;;17.08;100.00;98872.16;4995738;28;20043;-78
2021/09/02 07:34:06;;;;;;;89.75;39.72;;;;;;;16.99;100.00;98874.09;4997136;28;20042;-78
2021/09/02 07:36:33;;;;;;;93.07;40.10;;;;;;;17.16;100.00;98876.78;4998418;28;20085;-79
2021/09/02 07:39:10;;;;;;;89.90;40.58;;;;;;;17.18;100.00;98876.47;4981940;28;20251;-78
2021/09/02 07:41:38;;;;;;;84.13;38.20;;;;;;;17.13;100.00;98882.94;4980080;28;20522;-77
2021/09/02 07:44:05;;;;;;;87.68;38.90;;;;;;;17.27;100.00;98890.91;4979317;28;20043;-80
2021/09/02 07:46:32;;;;;;;75.43;36.10;;;;;;;17.00;100.00;98897.63;4975872;28;20042;-80
2021/09/02 07:48:59;;;;;;;69.63;34.65;;;;;;;16.96;100.00;98882.97;4991149;28;20050;-79
2021/09/02 07:51:26;;;;;;;65.97;34.08;;;;;;;17.26;100.00;98889.31;5007513;28;20050;-80
2021/09/02 07:53:52;;;;;;;70.50;36.10;;;;;;;17.39;100.00;98882.84;5001949;28;20045;-79
2021/09/02 07:56:20;;;;;;;66.88;34.15;;;;;;;17.43;100.00;98881.03;5001885;28;20054;-79
2021/09/02 07:58:46;;;;;;;68.88;33.80;;;;;;;17.48;100.00;98899.19;5017730;28;20058;-80
2021/09/02 08:01:14;;;;;;;65.78;33.90;;;;;;;17.48;100.00;98896.47;5003685;28;20042;-80
2021/09/02 08:03:41;;;;;;;69.82;33.38;;;;;;;17.34;100.00;98889.28;5021529;28;20486;-79
2021/09/02 08:06:08;;;;;;;81.00;36.75;;;;;;;17.38;100.00;98890.25;5019067;28;20054;-80
2021/09/02 08:08:35;;;;;;;65.18;33.58;;;;;;;17.22;100.00;98902.03;5004893;28;20125;-79
2021/09/02 08:11:02;;;;;;;65.85;33.20;;;;;;;17.43;100.00;98900.19;5017119;28;20625;-78
2021/09/02 08:13:29;;;;;;;76.88;33.63;;;;;;;17.75;100.00;98907.81;5016712;28;20042;-79
2021/09/02 08:15:56;;;;;;;61.88;30.63;;;;;;;18.03;100.00;98914.41;4998571;28;20109;-79
2021/09/02 08:18:23;;;;;;;59.00;30.48;;;;;;;18.13;100.00;98899.50;5014199;28;20042;-79
2021/09/02 08:20:49;;;;;;;72.43;35.42;;;;;;;17.83;100.00;98901.47;5010316;28;20066;-78
2021/09/02 08:23:16;;;;;;;72.88;36.47;;;;;;;17.99;100.00;98904.44;5026566;28;20234;-78
2021/09/02 08:25:43;;;;;;;76.07;35.38;;;;;;;17.89;100.00;98918.53;5010062;28;20055;-80
2021/09/02 08:28:10;;;;;;;66.35;36.03;;;;;;;17.56;100.00;98904.69;5009570;28;20050;-81
2021/09/02 08:30:37;;;;;;;69.78;36.60;;;;;;;17.63;100.00;98913.19;5009755;28;20050;-80
2021/09/02 08:33:04;;;;;;;72.82;36.97;;;;;;;17.66;100.00;98915.25;5022313;28;20050;-80
2021/09/02 08:35:33;;;;;;;71.97;35.53;;;;;;;17.89;100.00;98919.31;5005301;28;20065;-80
2021/09/02 08:38:05;;;;;;;74.93;35.78;;;;;;;17.91;100.00;98928.00;5003470;28;20086;-80
2021/09/02 08:40:36;;;;;;;68.82;34.58;;;;;;;17.79;100.00;98921.63;5001918;28;20058;-79
2021/09/02 08:43:03;;;;;;;61.35;31.92;;;;;;;17.95;100.00;98919.94;5002660;28;20046;-80
2021/09/02 08:45:31;;;;;;;62.10;32.17;;;;;;;18.42;100.00;98940.59;5017259;28;20070;-79
2021/09/02 08:48:02;;;;;;;61.92;31.20;;;;;;;18.64;100.00;98936.72;5001196;28;20041;-79
2021/09/02 08:50:33;;;;;;;55.58;28.20;;;;;;;19.05;100.00;98925.69;4999445;28;20505;-79
2021/09/02 08:53:01;;;;;;;55.55;28.92;;;;;;;19.12;100.00;98933.38;5014688;28;20057;-80
2021/09/02 08:55:28;;;;;;;58.15;30.63;;;;;;;19.08;100.00;98930.50;4999073;28;20042;-81
2021/09/02 08:57:56;;;;;;;56.65;30.48;;;;;;;18.64;100.00;98921.06;4997417;28;20042;-80
2021/09/02 09:00:25;;;;;;;60.72;31.65;;;;;;;18.97;100.00;98921.06;4999026;28;20274;-80
2021/09/02 09:03:10;;;;;;;59.88;31.50;;;;;;;19.13;100.00;98910.25;4995545;28;20057;-81
2021/09/02 09:05:37;;;;;;;54.35;29.75;;;;;;;18.95;100.00;98906.88;5012204;28;20049;-79
2021/09/02 09:08:09;;;;;;;54.53;28.45;;;;;;;19.38;100.00;98906.47;4995942;28;20504;-81
2021/09/02 09:10:38;;;;;;;57.88;30.77;;;;;;;19.00;100.00;98900.38;4998408;28;20609;-79
2021/09/02 09:13:08;;;;;;;55.03;28.77;;;;;;;18.85;100.00;98907.31;4996436;28;20137;-79
2021/09/02 09:15:38;;;;;;;51.38;28.73;;;;;;;19.21;100.00;98906.63;5010443;28;20047;-78
2021/09/02 09:18:16;;;;;;;51.15;28.27;;;;;;;19.35;100.00;98901.63;5029596;28;20022;-79
2021/09/02 09:20:43;;;;;;;53.05;28.00;;;;;;;19.20;100.00;98905.03;5016016;28;20026;-81
2021/09/02 09:23:10;;;;;;;47.00;26.98;;;;;;;19.60;100.00;98905.22;5015965;28;20036;-79
2021/09/02 09:25:40;;;;;;;51.35;26.13;;;;;;;19.38;100.00;98900.97;5029162;28;20045;-81
2021/09/02 09:28:07;;;;;;;50.65;25.67;;;;;;;19.48;100.00;98908.75;5028745;28;20110;-79
2021/09/02 09:30:38;;;;;;;59.30;30.35;;;;;;;19.64;100.00;98906.91;5015311;28;20030;-80
2021/09/02 09:33:07;;;;;;;52.72;29.08;;;;;;;20.03;100.00;98899.91;5010810;28;20069;-80
2021/09/02 09:35:36;;;;;;;61.85;28.38;;;;;;;20.31;100.00;98900.81;5001525;28;20080;-79
2021/09/02 09:38:07;;;;;;;43.50;25.55;;;;;;;20.40;100.00;98908.94;5013115;28;20038;-81
2021/09/02 09:40:38;;;;;;;44.20;22.58;;;;;;;20.30;100.00;98884.66;4979198;28;20058;-80
2021/09/02 09:43:26;;;;;;;45.83;23.10;;;;;;;20.99;100.00;98898.81;4998272;28;20054;-79
2021/09/02 09:45:54;;;;;;;46.13;23.73;;;;;;;21.31;100.00;98901.66;4999221;28;20057;-82
2021/09/02 09:48:33;;;;;;;44.70;23.33;;;;;;;21.11;100.00;98907.03;4997911;28;20045;-80
2021/09/02 09:51:22;;;;;;;39.25;22.02;;;;;;;21.39;100.00;98900.69;4998732;28;20050;-80
2021/09/02 09:53:52;;;;;;;38.65;21.20;;;;;;;21.85;100.00;98907.31;4995014;28;20081;-79
2021/09/02 09:56:22;;;;;;;34.55;18.88;;;;;;;22.43;100.00;98902.78;4998835;28;20070;-77
2021/09/02 09:58:52;;;;;;;39.03;21.35;;;;;;;22.07;100.00;98898.41;5004086;28;20469;-79
2021/09/02 10:01:19;;;;;;;42.45;22.85;;;;;;;22.80;100.00;98907.53;5008658;28;20070;-81
2021/09/02 10:03:51;;;;;;;38.88;20.92;;;;;;;23.93;100.00;98898.47;5009283;28;20038;-80
2021/09/02 10:06:19;;;;;;;43.83;21.63;;;;;;;24.22;100.00;98901.69;4995916;28;20058;-79
2021/09/02 10:08:46;;;;;;;40.33;21.58;;;;;;;25.11;100.00;98904.44;4995623;28;20049;-80
2021/09/02 10:11:15;;;;;;;35.63;20.48;;;;;;;25.66;100.00;98889.53;5011769;28;20058;-81
2021/09/02 10:13:43;;;;;;;34.90;19.00;;;;;;;24.86;100.00;98900.56;5010912;28;20106;-81
2021/09/02 10:16:10;;;;;;;36.28;19.88;;;;;;;24.53;100.00;98896.59;4994789;28;20050;-81
2021/09/02 10:18:47;;;;;;;32.28;19.38;;;;;;;23.46;100.00;98898.13;4993844;28;20057;-81
2021/09/02 10:21:16;;;;;;;32.20;17.88;;;;;;;23.79;100.00;98891.94;4992539;28;20070;-80
2021/09/02 10:23:43;;;;;;;35.90;19.20;;;;;;;24.65;100.00;98882.50;5009599;28;20050;-81
2021/09/02 10:26:34;;;;;;;25.92;16.67;;;;;;;26.91;91.53;98895.47;5009272;28;20070;-80
2021/09/02 10:29:35;;;;;;;29.38;16.30;;;;;;;28.28;64.33;98891.19;4995657;28;20540;-81
2021/09/02 10:32:26;;;;;;;32.92;16.20;;;;;;;28.90;56.47;98885.81;4998289;28;20046;-81
2021/09/02 10:35:06;;;;;;;27.92;16.30;;;;;;;26.65;88.65;98892.94;4995129;28;20150;-82
2021/09/02 10:37:40;;;;;;;29.63;16.10;;;;;;;26.33;85.45;98889.22;4997973;28;20050;-79
2021/09/02 10:40:16;;;;;;;23.60;15.50;;;;;;;25.38;100.00;98890.06;4999752;28;20050;-81
2021/09/02 10:42:48;;;;;;;34.20;18.95;;;;;;;26.47;86.85;98890.09;4997279;28;20440;-80
2021/09/02 10:45:30;;;;;;;32.85;16.88;;;;;;;27.76;73.08;98884.47;5001846;28;20042;-80
2021/09/02 10:48:04;;;;;;;27.45;16.38;;;;;;;28.21;67.94;98880.84;5001120;28;20094;-80
2021/09/02 10:50:39;;;;;;;27.70;14.68;;;;;;;26.89;68.78;98875.59;4998822;28;20079;-79
2021/09/02 10:53:13;;;;;;;25.85;14.02;;;;;;;26.25;73.23;98879.28;4997239;28;20062;-80
2021/09/02 10:56:00;;;;;;;23.60;14.35;;;;;;;27.73;66.12;98885.25;5013035;28;20049;-79
2021/09/02 10:58:45;;;;;;;22.38;12.80;;;;;;;29.27;62.17;98872.03;4997995;28;20405;-79
2021/09/02 11:01:21;;;;;;;24.50;12.63;;;;;;;30.70;52.66;98864.72;4997436;28;20050;-81
2021/09/02 11:03:50;;;;;;;24.70;14.85;;;;;;;27.07;72.70;98870.84;4997851;28;20046;-80
2021/09/02 11:06:16;;;;;;;24.02;13.30;;;;;;;30.58;50.19;98866.06;4998191;28;20046;-80
2021/09/02 11:08:44;;;;;;;21.15;11.63;;;;;;;33.13;42.57;98866.09;4998085;28;20065;-81
2021/09/02 11:11:18;;;;;;;25.10;12.90;;;;;;;32.16;42.73;98873.25;5012757;28;20064;-80
2021/09/02 11:13:47;;;;;;;23.02;12.02;;;;;;;30.42;47.67;98863.06;4998016;28;20049;-80
2021/09/02 11:16:19;;;;;;;19.70;11.75;;;;;;;28.90;49.67;98863.50;5001582;28;20050;-80
2021/09/02 11:18:52;;;;;;;21.90;12.07;;;;;;;27.01;58.24;98866.09;5016376;28;20413;-81
2021/09/02 11:21:27;;;;;;;18.88;11.85;;;;;;;26.17;72.10;98863.75;5016537;28;20049;-80